Arlington, Arizona
Current Conditions -  °F | °C
As of 5:35 AM on Saturday 20 Dec 2014 (Local Time) from KBXK Reporting Station
NA  
Wind Chill: 37°   Ceiling: NA
Heat Index: 41°   Visibility: 7mi
Dew Point: 41°   Wind: 6mph
Humidity: 100%   Direction: 310°NW
Pressure: 30.12"   Gusts: NA
Location:  33.33°N, 112.77°W
Report Text: KBXK 201235Z AUTO 31005KT 7SM 05/05 A3012 RMK AO1
Loading
Personal Weather Stations






























Interactive Weather Map New forecast layout! Learn more

10-Day Weather Forecast

Advertisements
Track Severe Weather on mobile